Flight Track Log - Related Links

Times and Time Zones

All times are in EDT time to prevent confusion due to time zone crossing. See the AAL2007 flight status page for this flight to view local times or setup timezone preferences in your user account.


Time Position Orientation Groundspeed Altitude Reporting Facility
EDT Latitude Longitude Course Direction KTS MPH feet Rate Location/Type
Fri 06:15:29 PM 41.9667 -87.9500 207° Southwest 174 200 2,200  Level Chicago TRACON
Fri 06:16:29 PM 41.9167 -87.9833 206° Southwest 202 232 4,200 1,450 Climbing Chicago TRACON
Fri 06:17:00 PM 41.7315 -88.1572 201° Southwest  Level Estimated
Fri 06:17:29 PM 41.8500 -88.0000 191° South 246 283 5,100  Level Chicago TRACON
Fri 06:17:55 PM 41.8247 -87.9981 177° South 232 267 5,800 2,494 Climbing Chicago Center
Fri 06:18:00 PM 41.6480 -88.2403 197° South  Level Estimated
Fri 06:18:58 PM 41.7556 -88.0153 191° South 260 299 8,800  Level Chicago Center
Fri 06:19:00 PM 41.5488 -88.1985 162° South  Level FlightAware Approximate
Fri 06:20:00 PM 41.4656 -88.2819 207° Southwest  Level Estimated
Fri 06:20:00 PM 41.6847 -88.0486 199° South 271 312 11,200  Level Chicago Center
Fri 06:21:02 PM 41.6072 -88.0842 199° South 294 338 13,300 2,081 Climbing Chicago Center
Fri 06:22:04 PM 41.5031 -88.1339 200° South 342 394 15,500 2,032 Climbing Chicago Center
Fri 06:23:06 PM 41.4128 -88.1758 199° South 356 410 17,500 1,839 Climbing Chicago Center
Fri 06:24:08 PM 41.3183 -88.2186 199° South 366 421 19,300 1,935 Climbing Chicago Center
Fri 06:25:10 PM 41.2203 -88.2633 199° South 373 429 21,500 1,984 Climbing Chicago Center
Fri 06:26:12 PM 41.1050 -88.3156 199° South 370 426 23,400 1,790 Climbing Chicago Center
Fri 06:27:14 PM 41.0047 -88.3606 199° South 377 434 25,200 1,355 Climbing Chicago Center
Fri 06:28:16 PM 40.9031 -88.4064 199° South 386 444 26,200 1,016 Climbing Chicago Center
Fri 06:29:18 PM 40.7967 -88.4528 198° South 401 461 27,300 1,065 Climbing Chicago Center
Fri 06:30:20 PM 40.6869 -88.5022 199° South 414 476 28,400 1,355 Climbing Chicago Center
Fri 06:31:22 PM 40.5561 -88.5606 199° South 416 479 30,100 1,210 Climbing Chicago Center
Fri 06:32:24 PM 40.4592 -88.6039 199° South 415 478 30,900 726 Climbing Chicago Center
Fri 06:33:26 PM 40.3481 -88.6517 198° South 418 481 31,600 528 Climbing Chicago Center
Fri 06:34:29 PM 40.2467 -88.7564 218° Southwest 383 441 32,000 192 Climbing Chicago Center
Fri 06:35:31 PM 40.1717 -88.8525 224° Southwest 375 432 32,000  Level Chicago Center
Fri 06:36:21 PM 40.1114 -88.9278 224° Southwest 376 433 32,000  Level Kansas City Center
Fri 06:37:23 PM 40.0375 -89.0211 224° Southwest 372 428 32,000  Level Kansas City Center
Fri 06:38:24 PM 39.9633 -89.1150 224° Southwest 369 425 32,000  Level Kansas City Center
Fri 06:39:27 PM 39.8894 -89.2094 224° Southwest 370 426 32,000  Level Kansas City Center
Fri 06:40:28 PM 39.8139 -89.3039 224° Southwest 373 429 32,000  Level Kansas City Center
Fri 06:41:29 PM 39.7394 -89.3975 224° Southwest 372 428 32,000  Level Kansas City Center
Fri 06:42:33 PM 39.6522 -89.5064 224° Southwest 372 428 32,000 432 Level Kansas City Center
Fri 06:43:34 PM 39.5775 -89.6000 224° Southwest 374 430 32,900 823 Climbing Kansas City Center
Fri 06:44:37 PM 39.5056 -89.6903 224° Southwest 365 420 33,700 532 Climbing Kansas City Center
Fri 06:45:38 PM 39.4333 -89.7794 224° Southwest 361 415 34,000 145 Climbing Kansas City Center
Fri 06:46:41 PM 39.3614 -89.8675 223° Southwest 358 412 34,000  Level Kansas City Center
Fri 06:47:43 PM 39.2758 -89.9742 224° Southwest 358 412 34,000  Level Kansas City Center
Fri 06:48:43 PM 39.2042 -90.0628 224° Southwest 358 412 34,000  Level Kansas City Center
Fri 06:49:44 PM 39.1317 -90.1511 223° Southwest 359 413 34,000  Level Kansas City Center
Fri 06:50:46 PM 39.0603 -90.2403 224° Southwest 360 414 34,000  Level Kansas City Center
Fri 06:51:50 PM 38.9886 -90.3275 223° Southwest 358 412 34,000  Level Kansas City Center
Fri 06:52:51 PM 38.9028 -90.4328 224° Southwest 355 409 34,000  Level Kansas City Center
Fri 06:53:53 PM 38.8261 -90.5233 223° Southwest 372 428 34,000  Level Kansas City Center
Fri 06:54:56 PM 38.7489 -90.6106 221° Southwest 369 425 34,000  Level Kansas City Center
Fri 06:55:57 PM 38.6792 -90.6922 222° Southwest 369 425 34,000  Level Kansas City Center
Fri 06:57:01 PM 38.6031 -90.7783 221° Southwest 370 426 34,000  Level Kansas City Center
Fri 06:58:01 PM 38.5117 -90.8842 222° Southwest 370 426 34,000  Level Kansas City Center
Fri 06:59:02 PM 38.4353 -90.9722 222° Southwest 372 428 34,000  Level Kansas City Center
Fri 07:00:06 PM 38.3569 -91.0606 221° Southwest 377 434 34,000  Level Kansas City Center
Fri 07:01:07 PM 38.2783 -91.1486 221° Southwest 376 433 34,000  Level Kansas City Center
Fri 07:02:07 PM 38.1997 -91.2375 222° Southwest 378 435 34,000  Level Kansas City Center
Fri 07:03:11 PM 38.1078 -91.3425 222° Southwest 384 442 34,000  Level Kansas City Center
Fri 07:04:11 PM 38.0264 -91.4325 221° Southwest 385 443 34,000  Level Kansas City Center
Fri 07:05:15 PM 37.9475 -91.5231 222° Southwest 380 437 34,000  Level Kansas City Center
Fri 07:06:15 PM 37.8686 -91.6119 222° Southwest 376 433 34,000  Level Kansas City Center
Fri 07:07:17 PM 37.7869 -91.7019 221° Southwest 381 438 34,000  Level Kansas City Center
Fri 07:08:21 PM 37.7094 -91.7931 223° Southwest 380 437 34,000  Level Kansas City Center
Fri 07:09:21 PM 37.6469 -91.9025 234° Southwest 381 438 34,000  Level Kansas City Center
Fri 07:10:24 PM 37.5694 -92.0353 234° Southwest 386 444 34,000  Level Kansas City Center
Fri 07:11:25 PM 37.5119 -92.1467 237° Southwest 379 436 34,000  Level Kansas City Center
Fri 07:12:29 PM 37.4500 -92.2508 233° Southwest 372 428 34,000  Level Kansas City Center
Fri 07:13:30 PM 37.3669 -92.3308 217° Southwest 372 428 34,000  Level Kansas City Center
Fri 07:14:31 PM 37.2856 -92.4172 220° Southwest 377 434 34,000  Level Kansas City Center
Fri 07:15:34 PM 37.2056 -92.5039 221° Southwest 377 434 34,000  Level Kansas City Center
Fri 07:16:35 PM 37.1264 -92.5942 222° Southwest 378 435 34,000  Level Kansas City Center
Fri 07:17:35 PM 37.0369 -92.6700 214° Southwest 383 441 34,000  Level Kansas City Center
Fri 07:18:37 PM 36.9517 -92.7525 218° Southwest 384 442 34,000  Level Kansas City Center
Fri 07:19:40 PM 36.8483 -92.8528 218° Southwest 387 445 34,000  Level Kansas City Center
Fri 07:20:09 PM 36.8147 -92.8889 221° Southwest 397 457 34,000  Level Memphis Center
Fri 07:21:09 PM 36.7294 -92.9717 218° Southwest 397 457 34,000  Level Memphis Center
Fri 07:22:09 PM 36.6486 -93.0517 218° Southwest 397 457 34,000  Level Memphis Center
Fri 07:23:09 PM 36.5633 -93.1367 219° Southwest 397 457 34,000  Level Memphis Center
Fri 07:24:09 PM 36.4803 -93.2217 219° Southwest 397 457 34,000  Level Memphis Center
Fri 07:25:09 PM 36.3969 -93.3014 218° Southwest 397 457 34,000  Level Memphis Center
Fri 07:26:09 PM 36.3117 -93.3831 218° Southwest 397 457 34,000  Level Memphis Center
Fri 07:27:09 PM 36.2283 -93.4625 218° Southwest 397 457 34,000  Level Memphis Center
Fri 07:28:09 PM 36.1450 -93.5442 218° Southwest 392 451 34,000  Level Memphis Center
Fri 07:29:09 PM 36.0639 -93.6231 218° Southwest 387 445 34,000  Level Memphis Center
Fri 07:30:09 PM 35.9781 -93.7069 218° Southwest 387 445 34,000  Level Memphis Center
Fri 07:31:09 PM 35.8947 -93.7856 217° Southwest 387 445 34,000  Level Memphis Center
Fri 07:32:09 PM 35.8069 -93.8689 218° Southwest 387 445 34,000  Level Memphis Center
Fri 07:33:09 PM 35.7275 -93.9472 219° Southwest 387 445 34,000  Level Memphis Center
Fri 07:34:09 PM 35.6417 -94.0306 218° Southwest 387 445 34,000  Level Memphis Center
Fri 07:35:09 PM 35.5581 -94.1058 216° Southwest 387 445 34,000  Level Memphis Center
Fri 07:36:09 PM 35.4742 -94.1889 219° Southwest 387 445 34,000  Level Memphis Center
Fri 07:37:09 PM 35.3925 -94.2639 217° Southwest 382 440 34,000  Level Memphis Center
Fri 07:38:09 PM 35.3028 -94.3361 213° Southwest 382 440 34,000  Level Memphis Center
Fri 07:39:09 PM 35.2108 -94.4031 211° Southwest 382 440 34,000  Level Memphis Center
Fri 07:40:09 PM 35.1231 -94.4722 213° Southwest 382 440 34,000  Level Memphis Center
Fri 07:42:07 PM 34.9517 -94.6094 213° Southwest 392 451 34,000  Level Fort Worth Center
Fri 07:43:07 PM 34.8633 -94.6756 212° Southwest 382 440 34,000  Level Fort Worth Center
Fri 07:44:07 PM 34.7750 -94.7442 213° Southwest 382 440 34,000  Level Fort Worth Center
Fri 07:45:07 PM 34.6867 -94.8075 211° Southwest 382 440 34,000  Level Fort Worth Center
Fri 07:46:07 PM 34.5942 -94.8783 212° Southwest 382 440 34,000  Level Fort Worth Center
Fri 07:47:07 PM 34.5058 -94.9439 211° Southwest 382 440 34,000  Level Fort Worth Center
Fri 07:48:07 PM 34.4175 -95.0094 211° Southwest 382 440 34,000  Level Fort Worth Center
Fri 07:49:07 PM 34.3250 -95.0797 212° Southwest 382 440 34,000  Level Fort Worth Center
Fri 07:50:07 PM 34.2344 -95.1475 212° Southwest 382 440 34,000  Level Fort Worth Center
Fri 07:51:07 PM 34.1394 -95.2178 211° Southwest 382 440 34,000  Level Fort Worth Center
Fri 07:52:07 PM 34.0508 -95.2828 211° Southwest 382 440 34,000  Level Fort Worth Center
Fri 07:53:07 PM 33.9603 -95.3475 211° Southwest 382 440 34,000  Level Fort Worth Center
Fri 07:54:07 PM 33.8717 -95.4147 212° Southwest 382 440 34,000  Level Fort Worth Center
Fri 07:55:07 PM 33.7808 -95.4792 211° Southwest 387 445 34,000  Level Fort Worth Center
Fri 07:56:07 PM 33.6919 -95.5461 212° Southwest 382 440 34,000  Level Fort Worth Center
Fri 07:57:07 PM 33.5950 -95.6156 211° Southwest 375 432 34,000  Level Fort Worth Center
Fri 07:58:07 PM 33.5042 -95.6847 212° Southwest 386 444 34,000  Level Fort Worth Center
Fri 07:59:07 PM 33.4131 -95.7486 210° Southwest 381 438 34,000  Level Fort Worth Center
Fri 08:00:07 PM 33.3222 -95.8125 210° Southwest 388 447 34,000  Level Fort Worth Center
Fri 08:01:07 PM 33.2311 -95.8786 211° Southwest 388 447 34,000  Level Fort Worth Center
Fri 08:02:07 PM 33.1400 -95.9447 211° Southwest 388 447 34,000  Level Fort Worth Center
Fri 08:03:07 PM 33.0511 -96.0106 212° Southwest 382 440 34,000  Level Fort Worth Center
Fri 08:04:07 PM 32.9578 -96.0789 212° Southwest 382 440 34,000  Level Fort Worth Center
Fri 08:05:07 PM 32.8769 -96.1369 211° Southwest 387 445 34,000  Level Fort Worth Center
Fri 08:06:07 PM 32.7858 -96.2000 210° Southwest 387 445 34,000 -200 Level Fort Worth Center
Fri 08:07:07 PM 32.6925 -96.2681 212° Southwest 387 445 33,600 -900 Descending Fort Worth Center
Fri 08:08:07 PM 32.5992 -96.3333 211° Southwest 392 451 32,200 -800 Descending Fort Worth Center
Fri 08:09:07 PM 32.5058 -96.4008 211° Southwest 392 451 32,000 -300 Descending Fort Worth Center
Fri 08:10:07 PM 32.3978 -96.4736 210° Southwest 397 457 31,600 -950 Descending Fort Worth Center
Fri 08:11:07 PM 32.3022 -96.5333 208° Southwest 397 457 30,100 -1,500 Descending Fort Worth Center
Fri 08:12:07 PM 32.1961 -96.5983 207° Southwest 408 470 28,600 -1,500 Descending Fort Worth Center
Fri 08:13:07 PM 32.0964 -96.6606 208° Southwest 413 475 27,100 -1,550 Descending Fort Worth Center
Fri 08:14:07 PM 31.9986 -96.7250 209° Southwest 407 468 25,500 -1,550 Descending Fort Worth Center
Fri 08:15:07 PM 31.9050 -96.7844 208° Southwest 401 461 24,000 -1,500 Descending Fort Worth Center
Fri 08:16:07 PM 31.8111 -96.8436 208° Southwest 391 450 22,500 -1,000 Descending Fort Worth Center
Fri 08:17:07 PM 31.7258 -96.8931 206° Southwest 391 450 22,000 -250 Descending Fort Worth Center
Fri 08:18:07 PM 31.6364 -96.9472 207° Southwest 380 437 22,000  Level Fort Worth Center
Fri 08:19:05 PM 31.5464 -97.0028 208° Southwest 372 428 22,000  Level Houston Center
Fri 08:20:07 PM 31.4531 -97.0594 207° Southwest 373 429 22,000 -488 Level Houston Center
Fri 08:21:08 PM 31.3603 -97.1169 208° Southwest 373 429 21,000 -1,463 Descending Houston Center
Fri 08:22:10 PM 31.2708 -97.1722 208° Southwest 366 421 19,000 -2,177 Descending Houston Center
Fri 08:23:12 PM 31.1683 -97.2264 204° Southwest 348 400 16,500 -2,323 Descending Houston Center
Fri 08:24:14 PM 31.0761 -97.2606 198° South 344 396 14,200 -1,694 Descending Houston Center
Fri 08:25:16 PM 30.9889 -97.2958 199° South 337 388 13,000 -581 Descending Houston Center
Fri 08:26:18 PM 30.9014 -97.3289 198° South 341 392 13,000 -387 Level Houston Center
Fri 08:27:20 PM 30.8142 -97.3819 208° Southwest 297 342 12,200 -1,161 Descending Houston Center
Fri 08:28:22 PM 30.7442 -97.4272 209° Southwest 286 329 10,600 -1,694 Descending Houston Center
Fri 08:29:24 PM 30.6731 -97.4708 208° Southwest 285 328 8,700 -1,452 Descending Houston Center
Fri 08:30:26 PM 30.6050 -97.5175 211° Southwest 283 326 7,600 -1,171 Descending Houston Center
Fri 08:31:27 PM 30.5444 -97.5633 213° Southwest 263 303 6,300 -1,366 Descending Houston Center
Fri 08:32:29 PM 30.4953 -97.6214 226° Southwest 251 289 4,800 -1,452 Descending Houston Center
Fri 08:33:31 PM 30.4436 -97.6725 220° Southwest 247 284 3,300 -1,113 Descending Houston Center
Fri 08:34:33 PM 30.3894 -97.6847 191° South 210 242 2,500 -387 Descending Houston Center
Fri 08:35:35 PM 30.3378 -97.6822 178° South 170 196 2,500  Level Houston Center

Login

Don't have an account? Register now (free) for customized features, flight alerts, and more!